Terminal Aerodrome Forecast
Issued by NWS Pocatello, ID

Home | Current Version | Previous Version | Text Only | Print | Product List | Glossary On
Versions: 1 2 3 4 5 6 7 8 9 10 11 12 13 14 15 16
614
FTUS45 KPIH 182333
TAFIDA
TAF
KIDA 182333Z 1900/1924 36007KT P6SM SCT120 BKN160
     FM190500 36007KT P6SM VCSH SCT030 BKN040 OVC090
     FM191000 12008KT 4SM -SN BR SCT015 BKN035 OVC090
     FM191200 17007KT 1SM -SN BR VV004=

USA.gov is the U.S. government's official web portal to all federal, state and local government web resources and services.